sensor_id;sensor_type;location;lat;lon;timestamp;P1;durP1;ratioP1;P2;durP2;ratioP2
2175;SDS011;1094;49.902;10.876;2023-02-02T00:01:23;19.97;;;18.97;;
2175;SDS011;1094;49.902;10.876;2023-02-02T00:03:49;19.80;;;18.80;;
2175;SDS011;1094;49.902;10.876;2023-02-02T00:06:16;19.93;;;18.93;;
2175;SDS011;1094;49.902;10.876;2023-02-02T00:08:42;19.50;;;18.50;;
2175;SDS011;1094;49.902;10.876;2023-02-02T00:11:08;20.67;;;19.57;;
2175;SDS011;1094;49.902;10.876;2023-02-02T00:13:34;20.20;;;19.10;;
2175;SDS011;1094;49.902;10.876;2023-02-02T00:18:44;19.93;;;18.83;;
2175;SDS011;1094;49.902;10.876;2023-02-02T00:21:10;20.23;;;19.20;;
2175;SDS011;1094;49.902;10.876;2023-02-02T00:23:36;20.17;;;19.10;;
2175;SDS011;1094;49.902;10.876;2023-02-02T00:26:02;19.70;;;18.60;;
2175;SDS011;1094;49.902;10.876;2023-02-02T00:28:28;20.00;;;19.00;;
2175;SDS011;1094;49.902;10.876;2023-02-02T00:30:54;19.57;;;18.57;;
2175;SDS011;1094;49.902;10.876;2023-02-02T00:33:20;19.60;;;18.50;;
2175;SDS011;1094;49.902;10.876;2023-02-02T00:35:46;20.08;;;18.92;;
2175;SDS011;1094;49.902;10.876;2023-02-02T00:38:12;19.73;;;18.63;;
2175;SDS011;1094;49.902;10.876;2023-02-02T00:40:38;20.13;;;19.00;;
2175;SDS011;1094;49.902;10.876;2023-02-02T00:43:04;20.40;;;19.07;;
2175;SDS011;1094;49.902;10.876;2023-02-02T00:45:30;20.75;;;19.45;;
2175;SDS011;1094;49.902;10.876;2023-02-02T00:47:56;19.70;;;18.70;;
2175;SDS011;1094;49.902;10.876;2023-02-02T00:50:22;20.33;;;19.23;;
2175;SDS011;1094;49.902;10.876;2023-02-02T00:52:48;19.40;;;18.40;;
2175;SDS011;1094;49.902;10.876;2023-02-02T00:55:14;19.67;;;18.58;;
2175;SDS011;1094;49.902;10.876;2023-02-02T00:57:41;19.88;;;18.77;;
2175;SDS011;1094;49.902;10.876;2023-02-02T01:00:10;19.48;;;18.48;;
2175;SDS011;1094;49.902;10.876;2023-02-02T01:02:36;19.35;;;18.20;;
2175;SDS011;1094;49.902;10.876;2023-02-02T01:05:02;20.70;;;19.60;;
2175;SDS011;1094;49.902;10.876;2023-02-02T01:07:28;20.48;;;19.38;;
2175;SDS011;1094;49.902;10.876;2023-02-02T01:09:54;19.50;;;18.50;;
2175;SDS011;1094;49.902;10.876;2023-02-02T01:12:20;19.90;;;18.87;;
2175;SDS011;1094;49.902;10.876;2023-02-02T01:14:46;20.00;;;18.90;;
2175;SDS011;1094;49.902;10.876;2023-02-02T01:17:12;20.43;;;19.33;;
2175;SDS011;1094;49.902;10.876;2023-02-02T01:19:39;20.00;;;19.00;;
2175;SDS011;1094;49.902;10.876;2023-02-02T01:22:05;20.63;;;19.63;;
2175;SDS011;1094;49.902;10.876;2023-02-02T01:24:31;19.98;;;18.88;;
2175;SDS011;1094;49.902;10.876;2023-02-02T01:26:57;20.70;;;19.60;;
2175;SDS011;1094;49.902;10.876;2023-02-02T01:29:23;21.03;;;19.93;;
2175;SDS011;1094;49.902;10.876;2023-02-02T01:31:49;20.20;;;19.10;;
2175;SDS011;1094;49.902;10.876;2023-02-02T01:34:15;19.80;;;18.80;;
2175;SDS011;1094;49.902;10.876;2023-02-02T01:36:41;19.87;;;18.87;;
2175;SDS011;1094;49.902;10.876;2023-02-02T01:39:07;20.10;;;19.10;;
2175;SDS011;1094;49.902;10.876;2023-02-02T01:41:33;19.97;;;18.87;;
2175;SDS011;1094;49.902;10.876;2023-02-02T01:44:03;19.83;;;18.73;;
2175;SDS011;1094;49.902;10.876;2023-02-02T01:46:35;19.38;;;18.38;;
2175;SDS011;1094;49.902;10.876;2023-02-02T01:49:06;19.95;;;18.95;;
2175;SDS011;1094;49.902;10.876;2023-02-02T01:51:43;18.85;;;17.85;;
2175;SDS011;1094;49.902;10.876;2023-02-02T01:54:19;19.73;;;18.63;;
2175;SDS011;1094;49.902;10.876;2023-02-02T01:56:48;18.83;;;17.83;;
2175;SDS011;1094;49.902;10.876;2023-02-02T01:59:15;18.80;;;17.80;;
2175;SDS011;1094;49.902;10.876;2023-02-02T02:01:41;18.77;;;17.77;;
2175;SDS011;1094;49.902;10.876;2023-02-02T02:04:08;18.83;;;17.83;;
2175;SDS011;1094;49.902;10.876;2023-02-02T02:06:34;19.10;;;18.10;;
2175;SDS011;1094;49.902;10.876;2023-02-02T02:09:01;18.73;;;17.83;;
2175;SDS011;1094;49.902;10.876;2023-02-02T02:11:28;19.47;;;18.47;;
2175;SDS011;1094;49.902;10.876;2023-02-02T02:13:54;18.33;;;17.43;;
2175;SDS011;1094;49.902;10.876;2023-02-02T02:30:34;18.45;;;17.55;;
2175;SDS011;1094;49.902;10.876;2023-02-02T02:33:03;17.50;;;16.70;;
2175;SDS011;1094;49.902;10.876;2023-02-02T02:40:41;17.93;;;17.13;;
2175;SDS011;1094;49.902;10.876;2023-02-02T02:43:11;17.90;;;17.10;;
2175;SDS011;1094;49.902;10.876;2023-02-02T02:45:39;17.90;;;17.10;;
2175;SDS011;1094;49.902;10.876;2023-02-02T02:48:07;18.33;;;17.33;;
2175;SDS011;1094;49.902;10.876;2023-02-02T02:50:34;17.98;;;17.17;;
2175;SDS011;1094;49.902;10.876;2023-02-02T02:53:05;18.70;;;17.80;;
2175;SDS011;1094;49.902;10.876;2023-02-02T02:55:41;18.20;;;17.30;;
2175;SDS011;1094;49.902;10.876;2023-02-02T02:58:21;18.00;;;17.20;;
2175;SDS011;1094;49.902;10.876;2023-02-02T03:00:58;18.60;;;17.70;;
2175;SDS011;1094;49.902;10.876;2023-02-02T03:05:55;17.73;;;16.93;;
2175;SDS011;1094;49.902;10.876;2023-02-02T03:08:27;17.70;;;16.90;;
2175;SDS011;1094;49.902;10.876;2023-02-02T03:10:56;17.80;;;17.00;;
2175;SDS011;1094;49.902;10.876;2023-02-02T03:13:22;18.00;;;17.20;;
2175;SDS011;1094;49.902;10.876;2023-02-02T03:15:49;17.77;;;16.88;;
2175;SDS011;1094;49.902;10.876;2023-02-02T03:18:16;18.07;;;17.27;;
2175;SDS011;1094;49.902;10.876;2023-02-02T03:20:43;17.90;;;17.10;;
2175;SDS011;1094;49.902;10.876;2023-02-02T03:23:09;17.50;;;16.70;;
2175;SDS011;1094;49.902;10.876;2023-02-02T03:25:35;17.50;;;16.60;;
2175;SDS011;1094;49.902;10.876;2023-02-02T03:28:02;17.35;;;16.55;;
2175;SDS011;1094;49.902;10.876;2023-02-02T03:30:28;17.73;;;16.90;;
2175;SDS011;1094;49.902;10.876;2023-02-02T03:32:54;17.33;;;16.53;;
2175;SDS011;1094;49.902;10.876;2023-02-02T03:35:20;17.10;;;16.30;;
2175;SDS011;1094;49.902;10.876;2023-02-02T03:37:46;17.30;;;16.50;;
2175;SDS011;1094;49.902;10.876;2023-02-02T03:40:12;17.40;;;16.60;;
2175;SDS011;1094;49.902;10.876;2023-02-02T03:42:38;18.03;;;17.23;;
2175;SDS011;1094;49.902;10.876;2023-02-02T03:45:04;18.20;;;17.40;;
2175;SDS011;1094;49.902;10.876;2023-02-02T03:47:30;17.57;;;16.63;;
2175;SDS011;1094;49.902;10.876;2023-02-02T03:49:56;17.30;;;16.50;;
2175;SDS011;1094;49.902;10.876;2023-02-02T03:52:23;17.00;;;16.20;;
2175;SDS011;1094;49.902;10.876;2023-02-02T03:54:49;17.00;;;16.10;;
2175;SDS011;1094;49.902;10.876;2023-02-02T03:57:15;17.67;;;16.80;;
2175;SDS011;1094;49.902;10.876;2023-02-02T03:59:41;17.23;;;16.33;;
2175;SDS011;1094;49.902;10.876;2023-02-02T04:02:07;17.30;;;16.60;;
2175;SDS011;1094;49.902;10.876;2023-02-02T04:04:33;17.20;;;16.40;;
2175;SDS011;1094;49.902;10.876;2023-02-02T04:06:59;16.93;;;16.13;;
2175;SDS011;1094;49.902;10.876;2023-02-02T04:09:25;16.50;;;15.80;;
2175;SDS011;1094;49.902;10.876;2023-02-02T04:11:51;16.40;;;15.60;;
2175;SDS011;1094;49.902;10.876;2023-02-02T04:14:18;17.00;;;16.10;;
2175;SDS011;1094;49.902;10.876;2023-02-02T04:16:44;17.00;;;16.30;;
2175;SDS011;1094;49.902;10.876;2023-02-02T04:19:09;16.97;;;16.10;;
2175;SDS011;1094;49.902;10.876;2023-02-02T04:21:38;16.77;;;15.93;;
2175;SDS011;1094;49.902;10.876;2023-02-02T04:24:06;16.87;;;16.07;;
2175;SDS011;1094;49.902;10.876;2023-02-02T04:26:32;17.00;;;16.20;;
2175;SDS011;1094;49.902;10.876;2023-02-02T04:28:57;17.20;;;16.30;;
2175;SDS011;1094;49.902;10.876;2023-02-02T04:31:23;16.47;;;15.73;;
2175;SDS011;1094;49.902;10.876;2023-02-02T04:33:49;16.10;;;15.40;;
2175;SDS011;1094;49.902;10.876;2023-02-02T04:36:15;15.90;;;15.20;;
2175;SDS011;1094;49.902;10.876;2023-02-02T04:38:41;15.87;;;15.17;;
2175;SDS011;1094;49.902;10.876;2023-02-02T04:41:08;15.93;;;14.80;;
2175;SDS011;1094;49.902;10.876;2023-02-02T04:43:34;16.23;;;15.43;;
2175;SDS011;1094;49.902;10.876;2023-02-02T04:46:00;15.40;;;14.70;;
2175;SDS011;1094;49.902;10.876;2023-02-02T04:48:26;15.37;;;14.67;;
2175;SDS011;1094;49.902;10.876;2023-02-02T04:50:59;15.33;;;14.73;;
2175;SDS011;1094;49.902;10.876;2023-02-02T04:53:25;14.80;;;14.20;;
2175;SDS011;1094;49.902;10.876;2023-02-02T04:55:51;15.07;;;14.37;;
2175;SDS011;1094;49.902;10.876;2023-02-02T04:58:17;14.50;;;13.90;;
2175;SDS011;1094;49.902;10.876;2023-02-02T05:00:43;15.27;;;14.57;;
2175;SDS011;1094;49.902;10.876;2023-02-02T05:03:10;15.00;;;14.20;;
2175;SDS011;1094;49.902;10.876;2023-02-02T05:05:36;15.23;;;14.53;;
2175;SDS011;1094;49.902;10.876;2023-02-02T05:08:02;14.57;;;13.90;;
2175;SDS011;1094;49.902;10.876;2023-02-02T05:10:28;14.60;;;13.93;;
2175;SDS011;1094;49.902;10.876;2023-02-02T05:12:54;14.90;;;14.20;;
2175;SDS011;1094;49.902;10.876;2023-02-02T05:15:20;15.07;;;14.37;;
2175;SDS011;1094;49.902;10.876;2023-02-02T05:17:47;15.30;;;14.70;;
2175;SDS011;1094;49.902;10.876;2023-02-02T05:20:13;14.87;;;14.27;;
2175;SDS011;1094;49.902;10.876;2023-02-02T05:22:39;14.50;;;13.90;;
2175;SDS011;1094;49.902;10.876;2023-02-02T05:25:06;14.80;;;14.10;;
2175;SDS011;1094;49.902;10.876;2023-02-02T05:27:32;13.90;;;13.20;;
2175;SDS011;1094;49.902;10.876;2023-02-02T05:29:59;14.60;;;14.00;;
2175;SDS011;1094;49.902;10.876;2023-02-02T05:32:25;14.00;;;13.43;;
2175;SDS011;1094;49.902;10.876;2023-02-02T05:34:54;14.20;;;13.60;;
2175;SDS011;1094;49.902;10.876;2023-02-02T05:37:20;13.80;;;13.20;;
2175;SDS011;1094;49.902;10.876;2023-02-02T05:39:46;14.60;;;14.00;;
2175;SDS011;1094;49.902;10.876;2023-02-02T05:42:14;14.03;;;13.43;;
2175;SDS011;1094;49.902;10.876;2023-02-02T05:44:40;14.73;;;14.10;;
2175;SDS011;1094;49.902;10.876;2023-02-02T05:47:06;14.67;;;14.03;;
2175;SDS011;1094;49.902;10.876;2023-02-02T05:49:32;14.40;;;13.80;;
2175;SDS011;1094;49.902;10.876;2023-02-02T05:51:58;14.37;;;13.77;;
2175;SDS011;1094;49.902;10.876;2023-02-02T05:54:24;14.87;;;14.20;;
2175;SDS011;1094;49.902;10.876;2023-02-02T05:56:51;15.10;;;14.43;;
2175;SDS011;1094;49.902;10.876;2023-02-02T05:59:19;14.93;;;14.30;;
2175;SDS011;1094;49.902;10.876;2023-02-02T06:01:45;15.17;;;14.17;;
2175;SDS011;1094;49.902;10.876;2023-02-02T06:04:11;14.63;;;14.03;;
2175;SDS011;1094;49.902;10.876;2023-02-02T06:06:37;14.97;;;14.20;;
2175;SDS011;1094;49.902;10.876;2023-02-02T06:09:04;14.80;;;14.10;;
2175;SDS011;1094;49.902;10.876;2023-02-02T06:11:30;14.80;;;14.10;;
2175;SDS011;1094;49.902;10.876;2023-02-02T06:13:56;14.87;;;14.27;;
2175;SDS011;1094;49.902;10.876;2023-02-02T06:16:22;15.43;;;14.70;;
2175;SDS011;1094;49.902;10.876;2023-02-02T06:18:48;15.57;;;14.80;;
2175;SDS011;1094;49.902;10.876;2023-02-02T06:21:14;15.37;;;14.57;;
2175;SDS011;1094;49.902;10.876;2023-02-02T06:23:40;14.37;;;13.77;;
2175;SDS011;1094;49.902;10.876;2023-02-02T06:26:12;14.80;;;14.10;;
2175;SDS011;1094;49.902;10.876;2023-02-02T06:28:39;14.70;;;14.00;;
2175;SDS011;1094;49.902;10.876;2023-02-02T06:31:05;14.03;;;13.43;;
2175;SDS011;1094;49.902;10.876;2023-02-02T06:33:31;15.00;;;14.30;;
2175;SDS011;1094;49.902;10.876;2023-02-02T06:36:01;14.63;;;13.83;;
2175;SDS011;1094;49.902;10.876;2023-02-02T06:38:27;14.57;;;13.87;;
2175;SDS011;1094;49.902;10.876;2023-02-02T06:40:53;14.63;;;13.90;;
2175;SDS011;1094;49.902;10.876;2023-02-02T06:43:19;14.60;;;13.83;;
2175;SDS011;1094;49.902;10.876;2023-02-02T06:45:45;14.00;;;13.40;;
2175;SDS011;1094;49.902;10.876;2023-02-02T06:48:11;14.80;;;14.10;;
2175;SDS011;1094;49.902;10.876;2023-02-02T06:50:38;14.33;;;13.50;;
2175;SDS011;1094;49.902;10.876;2023-02-02T06:53:04;14.30;;;13.63;;
2175;SDS011;1094;49.902;10.876;2023-02-02T06:55:30;14.77;;;13.97;;
2175;SDS011;1094;49.902;10.876;2023-02-02T06:57:56;14.40;;;13.80;;
2175;SDS011;1094;49.902;10.876;2023-02-02T07:00:23;14.67;;;14.03;;
2175;SDS011;1094;49.902;10.876;2023-02-02T07:02:49;14.60;;;13.90;;
2175;SDS011;1094;49.902;10.876;2023-02-02T07:05:14;13.93;;;13.43;;
2175;SDS011;1094;49.902;10.876;2023-02-02T07:07:43;14.73;;;13.93;;
2175;SDS011;1094;49.902;10.876;2023-02-02T07:10:10;14.83;;;14.10;;
2175;SDS011;1094;49.902;10.876;2023-02-02T07:12:36;15.07;;;14.37;;
2175;SDS011;1094;49.902;10.876;2023-02-02T07:15:03;16.13;;;15.33;;
2175;SDS011;1094;49.902;10.876;2023-02-02T07:17:29;14.90;;;14.30;;
2175;SDS011;1094;49.902;10.876;2023-02-02T07:19:55;15.43;;;14.73;;
2175;SDS011;1094;49.902;10.876;2023-02-02T07:22:21;16.07;;;15.27;;
2175;SDS011;1094;49.902;10.876;2023-02-02T07:24:47;16.00;;;15.30;;
2175;SDS011;1094;49.902;10.876;2023-02-02T07:27:12;15.87;;;15.17;;
2175;SDS011;1094;49.902;10.876;2023-02-02T07:29:38;15.60;;;14.90;;
2175;SDS011;1094;49.902;10.876;2023-02-02T07:32:04;16.33;;;15.47;;
2175;SDS011;1094;49.902;10.876;2023-02-02T07:34:30;15.70;;;15.00;;
2175;SDS011;1094;49.902;10.876;2023-02-02T07:36:56;15.77;;;15.00;;
2175;SDS011;1094;49.902;10.876;2023-02-02T07:39:22;15.47;;;14.87;;
2175;SDS011;1094;49.902;10.876;2023-02-02T07:41:48;15.40;;;14.80;;
2175;SDS011;1094;49.902;10.876;2023-02-02T07:44:14;15.37;;;14.57;;
2175;SDS011;1094;49.902;10.876;2023-02-02T07:46:44;15.40;;;14.80;;
2175;SDS011;1094;49.902;10.876;2023-02-02T07:49:14;15.40;;;14.80;;
2175;SDS011;1094;49.902;10.876;2023-02-02T07:51:40;15.53;;;14.83;;
2175;SDS011;1094;49.902;10.876;2023-02-02T07:54:07;15.53;;;14.83;;
2175;SDS011;1094;49.902;10.876;2023-02-02T07:56:33;14.77;;;14.17;;
2175;SDS011;1094;49.902;10.876;2023-02-02T07:58:59;14.63;;;14.03;;
2175;SDS011;1094;49.902;10.876;2023-02-02T08:01:25;14.83;;;14.23;;
2175;SDS011;1094;49.902;10.876;2023-02-02T08:03:52;15.03;;;14.33;;
2175;SDS011;1094;49.902;10.876;2023-02-02T08:06:25;15.10;;;14.40;;
2175;SDS011;1094;49.902;10.876;2023-02-02T08:08:56;14.63;;;14.03;;
2175;SDS011;1094;49.902;10.876;2023-02-02T08:11:22;14.60;;;14.00;;
2175;SDS011;1094;49.902;10.876;2023-02-02T08:13:49;15.10;;;14.50;;
2175;SDS011;1094;49.902;10.876;2023-02-02T08:16:16;15.00;;;14.40;;
2175;SDS011;1094;49.902;10.876;2023-02-02T08:18:42;14.93;;;14.33;;
2175;SDS011;1094;49.902;10.876;2023-02-02T08:21:08;14.50;;;13.90;;
2175;SDS011;1094;49.902;10.876;2023-02-02T08:23:34;14.50;;;13.90;;
2175;SDS011;1094;49.902;10.876;2023-02-02T08:26:05;14.30;;;13.70;;
2175;SDS011;1094;49.902;10.876;2023-02-02T08:28:31;14.30;;;13.70;;
2175;SDS011;1094;49.902;10.876;2023-02-02T08:31:02;15.10;;;14.50;;
2175;SDS011;1094;49.902;10.876;2023-02-02T08:33:28;15.00;;;14.40;;
2175;SDS011;1094;49.902;10.876;2023-02-02T08:35:54;14.07;;;13.57;;
2175;SDS011;1094;49.902;10.876;2023-02-02T08:38:22;14.60;;;14.00;;
2175;SDS011;1094;49.902;10.876;2023-02-02T08:40:48;14.37;;;13.77;;
2175;SDS011;1094;49.902;10.876;2023-02-02T08:43:14;14.43;;;13.83;;
2175;SDS011;1094;49.902;10.876;2023-02-02T08:45:41;14.97;;;14.37;;
2175;SDS011;1094;49.902;10.876;2023-02-02T08:48:07;14.53;;;13.93;;
2175;SDS011;1094;49.902;10.876;2023-02-02T08:50:33;14.37;;;13.77;;
2175;SDS011;1094;49.902;10.876;2023-02-02T08:52:59;15.10;;;14.43;;
2175;SDS011;1094;49.902;10.876;2023-02-02T08:55:25;15.33;;;14.70;;
2175;SDS011;1094;49.902;10.876;2023-02-02T08:57:51;15.37;;;14.70;;
2175;SDS011;1094;49.902;10.876;2023-02-02T09:00:17;15.53;;;14.93;;
2175;SDS011;1094;49.902;10.876;2023-02-02T09:02:43;16.77;;;15.37;;
2175;SDS011;1094;49.902;10.876;2023-02-02T09:05:09;15.37;;;14.70;;
2175;SDS011;1094;49.902;10.876;2023-02-02T09:07:35;15.53;;;14.90;;
2175;SDS011;1094;49.902;10.876;2023-02-02T09:10:01;15.90;;;15.20;;
2175;SDS011;1094;49.902;10.876;2023-02-02T09:12:27;15.87;;;15.17;;
2175;SDS011;1094;49.902;10.876;2023-02-02T09:14:52;16.00;;;15.30;;
2175;SDS011;1094;49.902;10.876;2023-02-02T09:17:18;16.40;;;15.70;;
2175;SDS011;1094;49.902;10.876;2023-02-02T09:19:44;16.40;;;15.60;;
2175;SDS011;1094;49.902;10.876;2023-02-02T09:22:10;16.83;;;16.10;;
2175;SDS011;1094;49.902;10.876;2023-02-02T09:24:36;16.47;;;15.77;;
2175;SDS011;1094;49.902;10.876;2023-02-02T09:27:02;16.13;;;15.43;;
2175;SDS011;1094;49.902;10.876;2023-02-02T09:29:28;16.73;;;15.93;;
2175;SDS011;1094;49.902;10.876;2023-02-02T09:31:54;16.20;;;15.50;;
2175;SDS011;1094;49.902;10.876;2023-02-02T09:34:20;17.37;;;16.43;;
2175;SDS011;1094;49.902;10.876;2023-02-02T09:36:46;17.17;;;16.27;;
2175;SDS011;1094;49.902;10.876;2023-02-02T09:39:12;17.40;;;16.50;;
2175;SDS011;1094;49.902;10.876;2023-02-02T09:44:17;17.53;;;16.73;;
2175;SDS011;1094;49.902;10.876;2023-02-02T09:49:32;16.80;;;16.10;;
2175;SDS011;1094;49.902;10.876;2023-02-02T09:52:03;17.53;;;16.73;;
2175;SDS011;1094;49.902;10.876;2023-02-02T09:56:59;16.87;;;16.07;;
2175;SDS011;1094;49.902;10.876;2023-02-02T09:59:32;16.27;;;15.57;;
2175;SDS011;1094;49.902;10.876;2023-02-02T10:02:01;16.77;;;16.07;;
2175;SDS011;1094;49.902;10.876;2023-02-02T10:04:32;16.40;;;15.70;;
2175;SDS011;1094;49.902;10.876;2023-02-02T10:07:03;16.90;;;16.20;;
2175;SDS011;1094;49.902;10.876;2023-02-02T10:09:42;17.17;;;16.43;;
2175;SDS011;1094;49.902;10.876;2023-02-02T10:12:20;16.93;;;16.23;;
2175;SDS011;1094;49.902;10.876;2023-02-02T10:15:03;16.50;;;15.80;;
2175;SDS011;1094;49.902;10.876;2023-02-02T10:20:46;17.00;;;16.20;;
2175;SDS011;1094;49.902;10.876;2023-02-02T10:22:51;17.23;;;16.53;;
2175;SDS011;1094;49.902;10.876;2023-02-02T10:25:18;17.23;;;16.43;;
2175;SDS011;1094;49.902;10.876;2023-02-02T10:27:57;17.00;;;16.30;;
2175;SDS011;1094;49.902;10.876;2023-02-02T10:30:46;17.60;;;16.80;;
2175;SDS011;1094;49.902;10.876;2023-02-02T10:33:37;17.57;;;16.77;;
2175;SDS011;1094;49.902;10.876;2023-02-02T10:38:46;17.93;;;16.90;;
2175;SDS011;1094;49.902;10.876;2023-02-02T10:41:17;17.40;;;16.60;;
2175;SDS011;1094;49.902;10.876;2023-02-02T10:43:51;17.20;;;16.40;;
2175;SDS011;1094;49.902;10.876;2023-02-02T10:46:32;17.10;;;16.33;;
2175;SDS011;1094;49.902;10.876;2023-02-02T10:51:41;18.23;;;17.33;;
2175;SDS011;1094;49.902;10.876;2023-02-02T10:54:19;17.87;;;17.07;;
2175;SDS011;1094;49.902;10.876;2023-02-02T10:56:49;17.57;;;16.77;;
2175;SDS011;1094;49.902;10.876;2023-02-02T10:59:18;18.03;;;17.13;;
2175;SDS011;1094;49.902;10.876;2023-02-02T11:01:46;18.17;;;16.97;;
2175;SDS011;1094;49.902;10.876;2023-02-02T11:04:12;18.03;;;17.13;;
2175;SDS011;1094;49.902;10.876;2023-02-02T11:06:57;18.60;;;17.60;;
2175;SDS011;1094;49.902;10.876;2023-02-02T11:09:24;18.90;;;17.70;;
2175;SDS011;1094;49.902;10.876;2023-02-02T11:12:39;17.70;;;16.80;;
2175;SDS011;1094;49.902;10.876;2023-02-02T11:14:39;17.83;;;16.93;;
2175;SDS011;1094;49.902;10.876;2023-02-02T11:17:10;19.10;;;18.03;;
2175;SDS011;1094;49.902;10.876;2023-02-02T11:19:41;19.00;;;18.00;;
2175;SDS011;1094;49.902;10.876;2023-02-02T11:22:09;16.30;;;15.43;;
2175;SDS011;1094;49.902;10.876;2023-02-02T11:24:48;14.93;;;14.23;;
2175;SDS011;1094;49.902;10.876;2023-02-02T11:27:15;14.13;;;13.50;;
2175;SDS011;1094;49.902;10.876;2023-02-02T11:29:44;16.60;;;15.90;;
2175;SDS011;1094;49.902;10.876;2023-02-02T11:32:29;17.37;;;16.57;;
2175;SDS011;1094;49.902;10.876;2023-02-02T11:37:32;18.50;;;17.50;;
2175;SDS011;1094;49.902;10.876;2023-02-02T11:43:02;19.80;;;18.60;;
2175;SDS011;1094;49.902;10.876;2023-02-02T11:45:33;20.03;;;18.80;;
2175;SDS011;1094;49.902;10.876;2023-02-02T11:50:31;20.47;;;19.27;;
2175;SDS011;1094;49.902;10.876;2023-02-02T11:52:57;20.73;;;19.53;;
2175;SDS011;1094;49.902;10.876;2023-02-02T11:55:25;20.57;;;19.37;;
2175;SDS011;1094;49.902;10.876;2023-02-02T12:00:44;21.63;;;20.30;;
2175;SDS011;1094;49.902;10.876;2023-02-02T12:08:44;20.30;;;19.20;;
2175;SDS011;1094;49.902;10.876;2023-02-02T12:11:11;20.23;;;19.03;;
2175;SDS011;1094;49.902;10.876;2023-02-02T12:13:45;20.00;;;18.60;;
2175;SDS011;1094;49.902;10.876;2023-02-02T12:16:23;21.10;;;19.70;;
2175;SDS011;1094;49.902;10.876;2023-02-02T12:21:28;21.50;;;20.00;;
2175;SDS011;1094;49.902;10.876;2023-02-02T12:26:29;22.50;;;21.20;;
2175;SDS011;1094;49.902;10.876;2023-02-02T12:31:32;22.00;;;20.70;;
2175;SDS011;1094;49.902;10.876;2023-02-02T12:36:42;20.93;;;19.70;;
2175;SDS011;1094;49.902;10.876;2023-02-02T12:41:55;21.50;;;20.30;;
2175;SDS011;1094;49.902;10.876;2023-02-02T12:44:40;21.50;;;20.20;;
2175;SDS011;1094;49.902;10.876;2023-02-02T12:52:28;20.63;;;19.40;;
2175;SDS011;1094;49.902;10.876;2023-02-02T12:57:48;21.40;;;20.00;;
2175;SDS011;1094;49.902;10.876;2023-02-02T13:00:25;22.60;;;21.10;;
2175;SDS011;1094;49.902;10.876;2023-02-02T13:10:41;21.53;;;20.23;;
2175;SDS011;1094;49.902;10.876;2023-02-02T13:15:41;22.13;;;20.63;;
2175;SDS011;1094;49.902;10.876;2023-02-02T13:18:10;22.60;;;21.00;;
2175;SDS011;1094;49.902;10.876;2023-02-02T13:20:54;21.23;;;19.90;;
2175;SDS011;1094;49.902;10.876;2023-02-02T13:23:22;22.00;;;20.70;;
2175;SDS011;1094;49.902;10.876;2023-02-02T13:25:52;21.80;;;20.50;;
2175;SDS011;1094;49.902;10.876;2023-02-02T13:30:52;21.03;;;19.83;;
2175;SDS011;1094;49.902;10.876;2023-02-02T13:33:24;21.37;;;20.17;;
2175;SDS011;1094;49.902;10.876;2023-02-02T13:36:34;22.63;;;21.13;;
2175;SDS011;1094;49.902;10.876;2023-02-02T13:38:41;21.20;;;20.00;;
2175;SDS011;1094;49.902;10.876;2023-02-02T13:41:10;22.00;;;20.60;;
2175;SDS011;1094;49.902;10.876;2023-02-02T13:46:27;22.27;;;20.87;;
2175;SDS011;1094;49.902;10.876;2023-02-02T13:51:44;22.90;;;21.57;;
2175;SDS011;1094;49.902;10.876;2023-02-02T14:01:56;24.17;;;22.63;;
2175;SDS011;1094;49.902;10.876;2023-02-02T14:04:23;23.60;;;22.17;;
2175;SDS011;1094;49.902;10.876;2023-02-02T14:06:54;24.40;;;22.80;;
2175;SDS011;1094;49.902;10.876;2023-02-02T14:09:21;23.50;;;22.10;;
2175;SDS011;1094;49.902;10.876;2023-02-02T14:11:57;24.00;;;22.47;;
2175;SDS011;1094;49.902;10.876;2023-02-02T14:14:24;24.97;;;23.17;;
2175;SDS011;1094;49.902;10.876;2023-02-02T14:16:56;23.60;;;22.20;;
2175;SDS011;1094;49.902;10.876;2023-02-02T14:22:02;23.70;;;22.27;;
2175;SDS011;1094;49.902;10.876;2023-02-02T14:24:37;23.60;;;22.13;;
2175;SDS011;1094;49.902;10.876;2023-02-02T14:34:45;27.20;;;25.00;;
2175;SDS011;1094;49.902;10.876;2023-02-02T14:39:40;27.57;;;25.57;;
2175;SDS011;1094;49.902;10.876;2023-02-02T14:45:24;25.57;;;23.87;;
2175;SDS011;1094;49.902;10.876;2023-02-02T14:47:51;24.50;;;22.90;;
2175;SDS011;1094;49.902;10.876;2023-02-02T14:50:23;23.93;;;22.53;;
2175;SDS011;1094;49.902;10.876;2023-02-02T14:52:56;24.30;;;22.60;;
2175;SDS011;1094;49.902;10.876;2023-02-02T14:55:24;23.70;;;22.30;;
2175;SDS011;1094;49.902;10.876;2023-02-02T14:57:54;24.47;;;22.87;;
2175;SDS011;1094;49.902;10.876;2023-02-02T15:00:22;24.43;;;22.83;;
2175;SDS011;1094;49.902;10.876;2023-02-02T15:02:49;24.70;;;23.20;;
2175;SDS011;1094;49.902;10.876;2023-02-02T15:08:05;23.23;;;21.93;;
2175;SDS011;1094;49.902;10.876;2023-02-02T15:11:13;23.13;;;21.83;;
2175;SDS011;1094;49.902;10.876;2023-02-02T15:13:21;23.47;;;22.07;;
2175;SDS011;1094;49.902;10.876;2023-02-02T15:15:48;22.90;;;21.50;;
2175;SDS011;1094;49.902;10.876;2023-02-02T15:18:20;22.60;;;21.20;;
2175;SDS011;1094;49.902;10.876;2023-02-02T15:20:51;22.57;;;21.03;;
2175;SDS011;1094;49.902;10.876;2023-02-02T15:23:26;23.00;;;21.60;;
2175;SDS011;1094;49.902;10.876;2023-02-02T15:28:31;22.43;;;20.80;;
2175;SDS011;1094;49.902;10.876;2023-02-02T15:31:24;22.53;;;21.23;;
2175;SDS011;1094;49.902;10.876;2023-02-02T15:33:47;21.70;;;20.50;;
2175;SDS011;1094;49.902;10.876;2023-02-02T15:36:19;22.43;;;21.13;;
2175;SDS011;1094;49.902;10.876;2023-02-02T15:38:48;23.27;;;21.70;;
2175;SDS011;1094;49.902;10.876;2023-02-02T15:43:46;21.83;;;20.53;;
2175;SDS011;1094;49.902;10.876;2023-02-02T15:46:12;22.20;;;20.90;;
2175;SDS011;1094;49.902;10.876;2023-02-02T15:48:47;22.93;;;21.33;;
2175;SDS011;1094;49.902;10.876;2023-02-02T15:51:33;22.37;;;21.07;;
2175;SDS011;1094;49.902;10.876;2023-02-02T15:53:59;21.73;;;20.47;;
2175;SDS011;1094;49.902;10.876;2023-02-02T15:56:27;22.07;;;20.80;;
2175;SDS011;1094;49.902;10.876;2023-02-02T15:58:54;22.17;;;20.77;;
2175;SDS011;1094;49.902;10.876;2023-02-02T16:01:21;22.70;;;21.30;;
2175;SDS011;1094;49.902;10.876;2023-02-02T16:04:10;22.60;;;21.30;;
2175;SDS011;1094;49.902;10.876;2023-02-02T16:06:40;22.40;;;21.00;;
2175;SDS011;1094;49.902;10.876;2023-02-02T16:09:06;22.20;;;21.00;;
2175;SDS011;1094;49.902;10.876;2023-02-02T16:11:35;21.73;;;20.53;;
2175;SDS011;1094;49.902;10.876;2023-02-02T16:14:07;21.60;;;20.40;;
2175;SDS011;1094;49.902;10.876;2023-02-02T16:16:38;21.40;;;20.10;;
2175;SDS011;1094;49.902;10.876;2023-02-02T16:21:35;22.93;;;21.43;;
2175;SDS011;1094;49.902;10.876;2023-02-02T16:24:03;21.60;;;20.40;;
2175;SDS011;1094;49.902;10.876;2023-02-02T16:26:29;23.03;;;21.23;;
2175;SDS011;1094;49.902;10.876;2023-02-02T16:28:56;21.23;;;20.03;;
2175;SDS011;1094;49.902;10.876;2023-02-02T16:31:22;21.87;;;20.57;;
2175;SDS011;1094;49.902;10.876;2023-02-02T16:33:47;21.10;;;19.87;;
2175;SDS011;1094;49.902;10.876;2023-02-02T16:36:18;21.77;;;20.47;;
2175;SDS011;1094;49.902;10.876;2023-02-02T16:38:44;21.53;;;20.30;;
2175;SDS011;1094;49.902;10.876;2023-02-02T16:41:11;21.60;;;20.27;;
2175;SDS011;1094;49.902;10.876;2023-02-02T16:43:38;21.50;;;20.00;;
2175;SDS011;1094;49.902;10.876;2023-02-02T16:46:06;21.67;;;20.40;;
2175;SDS011;1094;49.902;10.876;2023-02-02T16:48:37;21.97;;;20.60;;
2175;SDS011;1094;49.902;10.876;2023-02-02T16:53:30;21.60;;;20.20;;